createdAt,value
2019-04-20T00:00:01.735Z,0.00
2019-04-20T00:00:59.911Z,0.00
2019-04-20T00:02:08.230Z,0.00
2019-04-20T00:03:00.050Z,0.00
2019-04-20T00:03:58.949Z,0.00
2019-04-20T00:04:59.115Z,0.00
2019-04-20T00:05:59.316Z,0.00
2019-04-20T00:06:59.208Z,0.00
2019-04-20T00:08:01.199Z,0.00
2019-04-20T00:09:06.158Z,0.00
2019-04-20T00:10:07.608Z,0.00
2019-04-20T00:11:07.319Z,0.00
2019-04-20T00:12:08.246Z,0.00
2019-04-20T00:13:09.024Z,0.00
2019-04-20T00:14:06.681Z,0.00
2019-04-20T00:14:58.669Z,0.00
2019-04-20T00:15:58.133Z,0.00
2019-04-20T00:16:58.831Z,0.00
2019-04-20T00:18:01.619Z,0.00
2019-04-20T00:19:03.138Z,0.00
2019-04-20T00:19:59.388Z,0.00
2019-04-20T00:21:03.995Z,0.00
2019-04-20T00:22:02.962Z,0.00
2019-04-20T00:22:59.782Z,0.00
2019-04-20T00:24:01.078Z,0.00
2019-04-20T00:25:05.154Z,0.00
2019-04-20T00:26:06.793Z,0.00
2019-04-20T00:27:20.737Z,0.00
2019-04-20T00:28:16.078Z,0.00
2019-04-20T00:29:17.681Z,0.00
2019-04-20T00:30:15.658Z,0.00
2019-04-20T00:31:14.547Z,0.00
2019-04-20T00:32:12.521Z,0.00
2019-04-20T00:33:07.706Z,0.00
2019-04-20T00:34:08.021Z,0.00
2019-04-20T00:35:00.426Z,0.00
2019-04-20T00:35:58.914Z,0.00
2019-04-20T00:36:58.151Z,0.00
2019-04-20T00:37:59.081Z,0.00
2019-04-20T00:39:03.699Z,0.00
2019-04-20T00:39:57.883Z,0.00
2019-04-20T00:41:02.742Z,0.00
2019-04-20T00:42:03.832Z,0.00
2019-04-20T00:42:59.801Z,0.00
2019-04-20T00:44:04.662Z,0.00
2019-04-20T00:45:07.979Z,0.00
2019-04-20T00:46:04.857Z,0.00
2019-04-20T00:47:08.652Z,0.00
2019-04-20T00:48:04.420Z,0.00
2019-04-20T00:49:06.986Z,0.00
2019-04-20T00:50:13.319Z,0.00
2019-04-20T00:51:17.417Z,0.00
2019-04-20T00:52:24.218Z,0.00
2019-04-20T00:53:07.699Z,0.00
2019-04-20T00:53:58.853Z,0.00
2019-04-20T00:54:58.098Z,0.00
2019-04-20T00:55:57.140Z,0.00
2019-04-20T00:57:10.121Z,0.00
2019-04-20T00:58:08.393Z,0.00
2019-04-20T00:59:10.584Z,0.00
2019-04-20T01:00:17.783Z,0.00
2019-04-20T01:01:14.243Z,0.00
2019-04-20T01:02:12.651Z,0.00
2019-04-20T01:03:09.816Z,0.00
2019-04-20T01:04:20.214Z,0.00
2019-04-20T01:05:58.458Z,0.00
2019-04-20T01:06:53.890Z,0.00
2019-04-20T01:07:46.396Z,0.00
2019-04-20T01:08:40.220Z,0.00
2019-04-20T01:09:39.203Z,0.00
2019-04-20T01:10:44.780Z,0.00
2019-04-20T01:11:42.009Z,0.00
2019-04-20T01:12:42.052Z,0.00
2019-04-20T01:13:45.928Z,0.00
2019-04-20T01:14:46.897Z,0.00
2019-04-20T01:15:48.953Z,0.00
2019-04-20T01:16:47.401Z,0.00
2019-04-20T01:17:41.807Z,0.00
2019-04-20T01:18:38.778Z,0.00
2019-04-20T01:19:38.952Z,0.00
2019-04-20T01:20:38.944Z,0.00
2019-04-20T01:21:44.917Z,0.00
2019-04-20T01:22:50.723Z,0.00
2019-04-20T01:23:46.219Z,0.00
2019-04-20T01:24:43.274Z,0.00
2019-04-20T01:25:42.259Z,0.00
2019-04-20T01:26:43.497Z,0.00
2019-04-20T01:27:51.532Z,0.00
2019-04-20T01:28:57.675Z,0.00
2019-04-20T01:29:44.371Z,0.00
2019-04-20T01:30:44.638Z,0.00
2019-04-20T01:31:54.560Z,0.00
2019-04-20T01:32:55.333Z,0.00
2019-04-20T01:33:50.884Z,0.00
2019-04-20T01:34:50.350Z,0.00
2019-04-20T01:35:53.171Z,0.00
2019-04-20T01:36:55.681Z,0.00
2019-04-20T01:37:57.490Z,0.00
2019-04-20T01:38:51.309Z,0.00
2019-04-20T01:39:45.189Z,0.00
2019-04-20T01:40:38.360Z,0.00
2019-04-20T01:41:39.317Z,0.00
2019-04-20T01:42:38.381Z,0.00
2019-04-20T01:43:42.109Z,0.00
2019-04-20T01:44:42.500Z,0.00
2019-04-20T01:45:41.975Z,0.00
2019-04-20T01:46:39.184Z,0.00
2019-04-20T01:47:45.477Z,0.00
2019-04-20T01:48:41.200Z,0.00
2019-04-20T01:49:39.014Z,0.00
2019-04-20T01:50:43.837Z,0.00
2019-04-20T01:51:49.151Z,0.00
2019-04-20T01:52:50.827Z,0.00
2019-04-20T01:53:50.471Z,0.00
2019-04-20T01:54:58.043Z,0.00
2019-04-20T01:55:50.386Z,0.00
2019-04-20T01:56:47.266Z,0.00
2019-04-20T01:57:56.383Z,0.00
2019-04-20T01:58:55.314Z,0.00
2019-04-20T01:59:47.022Z,0.00
2019-04-20T02:00:40.567Z,0.00
2019-04-20T02:01:40.690Z,0.00
2019-04-20T02:02:45.042Z,0.00
2019-04-20T02:03:43.006Z,0.00
2019-04-20T02:04:41.986Z,0.00
2019-04-20T02:05:39.003Z,0.00
2019-04-20T02:06:43.517Z,0.00
2019-04-20T02:07:43.873Z,0.00
2019-04-20T02:08:37.856Z,0.00
2019-04-20T02:09:43.232Z,0.00
2019-04-20T02:10:47.080Z,0.00
2019-04-20T02:11:42.594Z,0.00
2019-04-20T02:12:40.740Z,0.00
2019-04-20T02:13:45.642Z,0.00
2019-04-20T02:14:43.745Z,0.00
2019-04-20T02:15:42.141Z,0.00
2019-04-20T02:16:42.705Z,0.00
2019-04-20T02:17:43.113Z,0.00
2019-04-20T02:18:51.455Z,0.00
2019-04-20T02:19:57.201Z,0.00
2019-04-20T02:20:56.772Z,0.00
2019-04-20T02:21:51.778Z,0.00
2019-04-20T02:22:54.169Z,0.00
2019-04-20T02:23:46.356Z,0.00
2019-04-20T02:24:37.483Z,0.00
2019-04-20T02:25:37.675Z,0.00
2019-04-20T02:26:36.840Z,0.00
2019-04-20T02:27:46.511Z,0.00
2019-04-20T02:29:00.478Z,0.00
2019-04-20T02:30:02.485Z,0.00
2019-04-20T02:31:15.751Z,0.00
2019-04-20T02:33:17.038Z,0.00
2019-04-20T02:34:08.295Z,0.00
2019-04-20T02:35:07.712Z,0.00
2019-04-20T02:36:21.121Z,0.00
2019-04-20T02:37:28.794Z,0.00
2019-04-20T02:38:15.351Z,0.00
2019-04-20T02:39:21.132Z,0.00
2019-04-20T02:40:35.922Z,0.00
2019-04-20T02:41:10.161Z,0.00
2019-04-20T02:42:10.146Z,0.00
2019-04-20T02:43:25.012Z,0.00
2019-04-20T02:44:17.888Z,0.00
2019-04-20T02:46:28.481Z,0.00
2019-04-20T02:50:06.989Z,0.00
2019-04-20T02:51:09.055Z,0.00
2019-04-20T02:53:08.203Z,0.00
2019-04-20T02:54:18.752Z,0.00
2019-04-20T02:55:10.857Z,0.00
2019-04-20T02:59:48.809Z,0.00
2019-04-20T03:01:02.301Z,0.00
2019-04-20T03:01:55.387Z,0.00
2019-04-20T03:02:48.867Z,0.00
2019-04-20T03:03:43.378Z,0.00
2019-04-20T03:04:45.309Z,0.00
2019-04-20T03:05:43.202Z,0.00
2019-04-20T03:06:53.835Z,0.00
2019-04-20T03:07:57.242Z,0.00
2019-04-20T03:08:56.411Z,0.00
2019-04-20T03:09:58.456Z,0.00
2019-04-20T03:11:06.426Z,0.00
2019-04-20T03:12:57.045Z,0.00
2019-04-20T03:13:55.421Z,0.00
2019-04-20T03:14:56.823Z,0.00
2019-04-20T03:15:56.493Z,0.00
2019-04-20T03:16:54.127Z,0.00
2019-04-20T03:17:59.649Z,0.00
2019-04-20T03:18:53.517Z,0.00
2019-04-20T03:19:51.299Z,0.00
2019-04-20T03:21:04.576Z,0.00
2019-04-20T03:21:58.572Z,0.00
2019-04-20T03:23:11.388Z,0.00
2019-04-20T03:24:09.899Z,0.00
2019-04-20T03:25:03.853Z,0.00
2019-04-20T03:25:58.433Z,0.00
2019-04-20T03:26:55.759Z,0.00
2019-04-20T03:27:51.743Z,0.00
2019-04-20T03:28:54.347Z,0.00
2019-04-20T03:29:56.608Z,0.00
2019-04-20T03:32:25.271Z,0.00
2019-04-20T03:33:11.765Z,0.00
2019-04-20T03:34:22.732Z,0.00
2019-04-20T03:35:10.188Z,0.00
2019-04-20T03:36:59.262Z,0.00
2019-04-20T03:38:01.658Z,0.00
2019-04-20T03:38:55.017Z,0.00
2019-04-20T03:39:48.814Z,0.00
2019-04-20T03:40:48.306Z,0.00
2019-04-20T03:41:41.395Z,0.00
2019-04-20T03:42:37.662Z,0.00
2019-04-20T03:43:34.948Z,0.00
2019-04-20T03:44:35.928Z,0.00
2019-04-20T03:45:42.691Z,0.00
2019-04-20T03:46:44.892Z,0.00
2019-04-20T03:47:47.824Z,0.00
2019-04-20T03:48:53.451Z,0.00
2019-04-20T03:50:16.754Z,0.00
2019-04-20T03:50:52.220Z,0.00
2019-04-20T03:51:58.773Z,0.00
2019-04-20T03:52:57.835Z,0.00
2019-04-20T03:53:50.313Z,0.00
2019-04-20T03:54:47.833Z,0.00
2019-04-20T03:55:51.635Z,5.63
2019-04-20T03:56:54.301Z,5.63
2019-04-20T03:58:01.485Z,5.63
2019-04-20T03:58:53.034Z,5.63
2019-04-20T04:00:01.814Z,5.63
2019-04-20T04:00:50.379Z,5.63
2019-04-20T04:02:17.082Z,11.25
2019-04-20T04:03:09.357Z,11.25
2019-04-20T04:03:59.315Z,11.25
2019-04-20T04:04:56.343Z,11.25
2019-04-20T04:05:48.125Z,16.88
2019-04-20T04:06:46.297Z,16.88
2019-04-20T04:07:41.567Z,16.88
2019-04-20T04:08:39.533Z,22.50
2019-04-20T04:09:47.123Z,22.50
2019-04-20T04:10:58.508Z,28.13
2019-04-20T04:11:49.063Z,28.13
2019-04-20T04:12:40.325Z,33.75
2019-04-20T04:14:17.643Z,39.38
2019-04-20T04:15:16.866Z,45.00
2019-04-20T04:16:19.818Z,45.00
2019-04-20T04:17:20.979Z,45.00
2019-04-20T04:18:25.539Z,50.63
2019-04-20T04:19:22.678Z,56.25
2019-04-20T04:20:19.110Z,67.50
2019-04-20T04:21:21.743Z,67.50
2019-04-20T04:22:32.745Z,67.50
2019-04-20T04:23:33.626Z,67.50
2019-04-20T04:24:26.006Z,73.13
2019-04-20T04:25:29.684Z,78.75
2019-04-20T04:26:32.366Z,84.38
2019-04-20T04:27:36.948Z,90.00
2019-04-20T04:28:31.101Z,95.63
2019-04-20T04:29:40.020Z,106.88
2019-04-20T04:30:31.043Z,112.50
2019-04-20T04:31:40.338Z,129.38
2019-04-20T04:32:58.968Z,129.38
2019-04-20T04:34:33.723Z,140.63
2019-04-20T04:35:26.735Z,151.88
2019-04-20T04:36:30.782Z,157.50
2019-04-20T04:37:35.486Z,157.50
2019-04-20T04:38:37.445Z,168.75
2019-04-20T04:39:35.390Z,174.38
2019-04-20T04:40:40.772Z,180.00
2019-04-20T04:41:36.425Z,191.25
2019-04-20T04:42:37.802Z,196.88
2019-04-20T04:43:31.583Z,202.50
2019-04-20T04:44:30.240Z,213.75
2019-04-20T04:45:17.711Z,213.75
2019-04-20T04:46:16.443Z,225.00
2019-04-20T04:47:16.516Z,230.63
2019-04-20T04:48:24.981Z,230.63
2019-04-20T04:49:24.218Z,241.88
2019-04-20T04:50:20.805Z,247.50
2019-04-20T04:51:20.701Z,236.25
2019-04-20T04:53:54.295Z,208.13
2019-04-20T04:54:48.404Z,213.75
2019-04-20T04:55:47.708Z,219.38
2019-04-20T04:56:39.878Z,225.00
2019-04-20T04:57:39.635Z,230.63
2019-04-20T04:58:40.500Z,230.63
2019-04-20T04:59:40.374Z,236.25
2019-04-20T05:00:40.736Z,241.88
2019-04-20T05:01:40.509Z,247.50
2019-04-20T05:02:45.464Z,253.13
2019-04-20T05:04:05.633Z,253.13
2019-04-20T05:05:05.189Z,258.75
2019-04-20T05:06:01.404Z,264.38
2019-04-20T05:06:54.739Z,298.13
2019-04-20T05:07:51.811Z,354.38
2019-04-20T05:08:45.386Z,410.63
2019-04-20T05:09:39.851Z,427.50
2019-04-20T05:10:39.303Z,444.38
2019-04-20T05:11:40.556Z,450.00
2019-04-20T05:12:40.480Z,461.25
2019-04-20T05:14:32.037Z,495.00
2019-04-20T05:15:39.400Z,495.00
2019-04-20T05:16:43.477Z,506.25
2019-04-20T05:17:48.357Z,523.13
2019-04-20T05:18:44.978Z,540.00
2019-04-20T05:19:41.586Z,540.00
2019-04-20T05:20:43.826Z,551.25
2019-04-20T05:21:47.647Z,562.50
2019-04-20T05:22:41.581Z,568.13
2019-04-20T05:23:35.145Z,585.00
2019-04-20T05:24:33.761Z,596.25
2019-04-20T05:25:37.770Z,618.75
2019-04-20T05:26:42.674Z,630.00
2019-04-20T05:27:42.047Z,652.50
2019-04-20T05:28:33.430Z,652.50
2019-04-20T05:29:26.412Z,663.75
2019-04-20T05:30:22.392Z,680.63
2019-04-20T05:31:24.485Z,691.88
2019-04-20T05:32:32.784Z,708.75
2019-04-20T05:33:33.069Z,725.63
2019-04-20T05:34:45.255Z,736.88
2019-04-20T05:35:44.187Z,748.13
2019-04-20T05:36:41.288Z,759.38
2019-04-20T05:37:49.893Z,765.00
2019-04-20T05:38:46.977Z,776.25
2019-04-20T05:39:45.773Z,787.50
2019-04-20T05:40:45.017Z,798.75
2019-04-20T05:41:39.061Z,815.63
2019-04-20T05:42:44.455Z,826.88
2019-04-20T05:43:36.309Z,849.38
2019-04-20T05:44:44.253Z,860.63
2019-04-20T05:45:34.056Z,883.13
2019-04-20T05:46:40.996Z,888.75
2019-04-20T05:47:38.539Z,871.88
2019-04-20T05:48:46.284Z,900.00
2019-04-20T05:49:34.568Z,916.88
2019-04-20T05:50:37.987Z,933.75
2019-04-20T05:51:39.511Z,950.63
2019-04-20T05:53:44.921Z,967.50
2019-04-20T05:54:45.862Z,990.00
2019-04-20T05:55:41.650Z,1018.13
2019-04-20T05:57:05.518Z,1029.38
2019-04-20T05:57:47.013Z,1057.50
2019-04-20T05:58:41.956Z,1085.63
2019-04-20T05:59:51.572Z,1096.88
2019-04-20T06:00:47.828Z,1102.50
2019-04-20T06:01:45.268Z,1096.88
2019-04-20T06:02:39.359Z,1119.38
2019-04-20T06:04:55.908Z,1164.38
2019-04-20T06:05:50.765Z,1198.13
2019-04-20T06:07:42.526Z,1220.63
2019-04-20T06:08:45.263Z,1265.63
2019-04-20T06:09:42.114Z,1248.75
2019-04-20T06:11:44.486Z,1265.63
2019-04-20T06:12:40.276Z,1293.75
2019-04-20T06:13:33.631Z,1299.38
2019-04-20T06:14:36.783Z,1327.50
2019-04-20T06:15:42.060Z,1321.88
2019-04-20T06:16:46.757Z,1327.50
2019-04-20T06:17:37.327Z,1366.88
2019-04-20T06:18:34.799Z,1417.50
2019-04-20T06:19:42.265Z,1417.50
2019-04-20T06:20:46.964Z,1383.75
2019-04-20T06:21:44.013Z,1411.88
2019-04-20T06:22:41.465Z,1490.63
2019-04-20T06:23:47.589Z,1485.00
2019-04-20T06:24:45.603Z,1485.00
2019-04-20T06:26:49.041Z,1552.50
2019-04-20T06:27:43.509Z,1580.63
2019-04-20T06:28:37.907Z,1597.50
2019-04-20T06:29:42.712Z,1614.38
2019-04-20T06:30:40.608Z,1636.88
2019-04-20T06:31:40.959Z,1648.13
2019-04-20T06:32:40.397Z,1642.50
2019-04-20T06:33:53.378Z,1642.50
2019-04-20T06:34:37.912Z,1676.25
2019-04-20T06:38:49.737Z,1749.38
2019-04-20T06:40:29.270Z,1794.38
2019-04-20T06:41:45.567Z,1766.25
2019-04-20T06:42:10.870Z,1766.25
2019-04-20T06:43:12.478Z,1850.63
2019-04-20T06:44:21.579Z,1895.63
2019-04-20T06:45:20.233Z,1890.00
2019-04-20T06:46:16.194Z,1878.75
2019-04-20T06:47:16.240Z,1878.75
2019-04-20T06:48:13.571Z,1873.13
2019-04-20T06:49:19.659Z,1822.50
2019-04-20T06:50:06.310Z,1884.38
2019-04-20T06:51:09.273Z,1884.38
2019-04-20T06:52:20.323Z,1873.13
2019-04-20T06:56:52.497Z,1710.00
2019-04-20T06:57:45.307Z,1648.13
2019-04-20T06:58:55.655Z,1614.38
2019-04-20T06:59:52.550Z,1625.63
2019-04-20T07:00:42.137Z,1518.75
2019-04-20T07:02:29.958Z,1321.88
2019-04-20T07:03:37.703Z,1276.88
2019-04-20T07:05:43.917Z,1181.25
2019-04-20T07:06:48.366Z,1141.88
2019-04-20T07:08:27.758Z,1147.50
2019-04-20T07:09:19.995Z,1136.25
2019-04-20T07:10:15.145Z,1153.13
2019-04-20T07:11:13.153Z,1513.13
2019-04-20T08:11:32.062Z,2379.38
2019-04-20T08:13:56.964Z,2283.75
2019-04-20T08:14:56.932Z,2407.50
2019-04-20T08:15:58.737Z,2531.25
2019-04-20T08:17:12.171Z,2469.38
2019-04-20T08:18:07.427Z,2525.63
2019-04-20T08:18:55.391Z,2565.00
2019-04-20T08:19:54.904Z,2587.50
2019-04-20T08:20:58.131Z,2570.63
2019-04-20T08:21:52.036Z,2593.13
2019-04-20T08:24:17.143Z,2548.13
2019-04-20T08:25:08.598Z,2497.50
2019-04-20T08:26:05.702Z,2469.38
2019-04-20T08:27:04.284Z,2553.75
2019-04-20T08:27:59.133Z,2565.00
2019-04-20T08:29:03.343Z,2463.75
2019-04-20T08:30:57.086Z,2486.25
2019-04-20T08:32:03.119Z,2525.63
2019-04-20T08:32:55.581Z,2497.50
2019-04-20T08:34:07.663Z,2475.00
2019-04-20T08:35:05.579Z,2542.50
2019-04-20T08:36:04.423Z,2536.88
2019-04-20T08:37:01.668Z,2475.00
2019-04-20T08:38:32.483Z,2491.88
2019-04-20T08:43:42.341Z,2677.50
2019-04-20T08:45:38.629Z,2621.25
2019-04-20T08:46:32.122Z,2643.75
2019-04-20T08:47:47.351Z,2576.25
2019-04-20T08:49:22.085Z,2716.88
2019-04-20T08:50:57.190Z,2767.50
2019-04-20T08:52:34.334Z,2688.75
2019-04-20T08:55:41.371Z,2750.63
2019-04-20T08:56:36.230Z,2761.88
2019-04-20T08:57:27.048Z,2767.50
2019-04-20T08:58:27.246Z,2778.75
2019-04-20T08:59:26.479Z,2733.75
2019-04-20T09:01:14.075Z,2868.75
2019-04-20T09:03:48.744Z,2851.88
2019-04-20T09:04:43.120Z,2868.75
2019-04-20T09:05:45.827Z,2896.88
2019-04-20T09:06:45.692Z,2790.00
2019-04-20T09:07:45.279Z,2818.13
2019-04-20T09:08:49.292Z,2829.38
2019-04-20T09:09:56.504Z,2812.50
2019-04-20T09:10:48.196Z,2936.25
2019-04-20T09:11:55.598Z,2930.63
2019-04-20T09:12:50.647Z,2908.13
2019-04-20T09:13:41.241Z,2835.00
2019-04-20T09:14:35.198Z,2857.50
2019-04-20T09:15:34.187Z,2913.75
2019-04-20T09:16:43.549Z,2998.13
2019-04-20T09:17:41.134Z,2880.00
2019-04-20T09:18:44.275Z,2953.13
2019-04-20T09:19:41.959Z,2913.75
2019-04-20T09:20:45.830Z,2947.50
2019-04-20T09:21:43.694Z,2986.88
2019-04-20T09:22:44.496Z,2958.75
2019-04-20T09:23:45.079Z,2925.00
2019-04-20T09:25:05.677Z,2868.75
2019-04-20T09:26:04.910Z,3009.38
2019-04-20T09:26:47.491Z,3060.00
2019-04-20T09:27:40.658Z,2936.25
2019-04-20T09:28:40.535Z,3015.00
2019-04-20T09:29:42.741Z,2981.25
2019-04-20T09:30:47.078Z,2919.38
2019-04-20T09:31:47.111Z,2970.00
2019-04-20T09:32:46.421Z,3031.88
2019-04-20T09:33:51.707Z,3015.00
2019-04-20T09:34:54.342Z,3009.38
2019-04-20T09:35:49.550Z,3206.25
2019-04-20T09:36:48.040Z,3206.25
2019-04-20T09:37:47.196Z,3088.13
2019-04-20T09:38:44.036Z,3172.50
2019-04-20T09:39:51.387Z,3262.50
2019-04-20T09:40:54.265Z,3155.63
2019-04-20T09:41:57.801Z,3195.00
2019-04-20T09:42:32.796Z,3256.88
2019-04-20T09:43:32.781Z,3262.50
2019-04-20T09:44:38.643Z,3285.00
2019-04-20T09:45:38.190Z,3189.38
2019-04-20T09:46:39.344Z,3240.00
2019-04-20T09:47:41.181Z,3273.75
2019-04-20T09:48:40.302Z,3448.13
2019-04-20T09:49:42.801Z,3363.75
2019-04-20T09:50:55.413Z,3330.00
2019-04-20T09:51:49.982Z,3313.13
2019-04-20T09:52:55.437Z,3256.88
2019-04-20T09:53:43.193Z,3296.25
2019-04-20T09:54:52.564Z,3391.88
2019-04-20T09:55:52.151Z,3420.00
2019-04-20T09:56:55.367Z,3397.50
2019-04-20T09:57:49.952Z,3448.13
2019-04-20T09:58:55.259Z,3425.63
2019-04-20T09:59:51.302Z,3431.25
2019-04-20T10:00:49.362Z,3346.88
2019-04-20T10:01:40.210Z,3341.25
2019-04-20T10:02:34.986Z,3375.00
2019-04-20T10:04:15.353Z,3526.88
2019-04-20T10:05:15.661Z,3481.88
2019-04-20T10:06:17.954Z,3577.50
2019-04-20T10:07:19.526Z,3526.88
2019-04-20T10:08:15.515Z,3493.13
2019-04-20T10:09:15.747Z,3566.25
2019-04-20T10:10:26.047Z,3712.50
2019-04-20T10:11:14.760Z,3515.63
2019-04-20T10:12:15.690Z,3566.25
2019-04-20T10:13:15.417Z,3628.13
2019-04-20T10:14:14.723Z,3526.88
2019-04-20T10:15:19.489Z,3408.75
2019-04-20T10:16:15.660Z,3735.00
2019-04-20T10:17:15.864Z,3723.75
2019-04-20T10:18:14.658Z,3453.75
2019-04-20T10:19:20.649Z,3487.50
2019-04-20T10:20:22.386Z,3712.50
2019-04-20T10:21:15.779Z,3712.50
2019-04-20T10:22:14.926Z,3712.50
2019-04-20T10:23:14.577Z,3661.88
2019-04-20T10:24:14.700Z,3639.38
2019-04-20T10:25:14.966Z,3622.50
2019-04-20T10:26:14.531Z,3470.63
2019-04-20T10:27:14.653Z,3667.50
2019-04-20T10:28:15.808Z,3757.50
2019-04-20T10:29:15.471Z,3481.88
2019-04-20T10:30:14.657Z,3245.63
2019-04-20T10:31:14.737Z,3031.88
2019-04-20T10:32:16.016Z,3009.38
2019-04-20T10:33:15.484Z,3048.75
2019-04-20T10:34:15.686Z,2880.00
2019-04-20T10:35:16.643Z,2863.13
2019-04-20T10:36:15.309Z,2823.75
2019-04-20T10:37:15.608Z,2542.50
2019-04-20T10:38:15.638Z,2441.25
2019-04-20T10:39:14.346Z,2508.75
2019-04-20T10:40:21.370Z,2548.13
2019-04-20T10:41:28.431Z,2621.25
2019-04-20T10:42:14.363Z,2716.88
2019-04-20T10:43:14.470Z,2638.13
2019-04-20T10:44:14.695Z,2750.63
2019-04-20T10:45:14.973Z,2739.38
2019-04-20T10:46:15.087Z,2671.88
2019-04-20T10:47:14.750Z,2739.38
2019-04-20T10:48:15.153Z,2863.13
2019-04-20T10:49:15.430Z,2857.50
2019-04-20T10:50:14.369Z,2846.25
2019-04-20T10:51:15.526Z,2497.50
2019-04-20T10:52:15.599Z,2362.50
2019-04-20T10:53:14.343Z,2587.50
2019-04-20T10:54:14.340Z,2486.25
2019-04-20T10:55:14.680Z,2244.38
2019-04-20T10:56:15.739Z,2160.00
2019-04-20T10:57:15.523Z,2103.75
2019-04-20T10:58:15.526Z,2182.50
2019-04-20T10:59:14.239Z,2520.00
2019-04-20T11:00:15.480Z,2846.25
2019-04-20T11:01:14.000Z,3031.88
2019-04-20T11:02:14.065Z,3093.75
2019-04-20T11:03:13.971Z,3116.25
2019-04-20T11:04:14.672Z,3150.00
2019-04-20T11:05:14.771Z,3200.63
2019-04-20T11:06:14.491Z,3285.00
2019-04-20T11:07:14.680Z,3346.88
2019-04-20T11:08:14.850Z,3178.13
2019-04-20T11:09:14.331Z,3048.75
2019-04-20T11:10:21.455Z,3099.38
2019-04-20T11:11:21.283Z,3150.00
2019-04-20T11:12:14.583Z,3088.13
2019-04-20T11:13:15.067Z,3206.25
2019-04-20T11:14:22.801Z,3380.63
2019-04-20T11:15:14.619Z,3470.63
2019-04-20T11:16:14.728Z,3386.25
2019-04-20T11:17:14.174Z,3526.88
2019-04-20T11:18:13.751Z,3543.75
2019-04-20T11:19:13.739Z,3346.88
2019-04-20T11:20:15.163Z,3206.25
2019-04-20T11:21:15.317Z,3498.75
2019-04-20T11:22:14.556Z,3695.63
2019-04-20T11:23:14.050Z,3853.13
2019-04-20T11:24:14.317Z,3858.75
2019-04-20T11:25:14.443Z,3960.00
2019-04-20T11:26:14.070Z,3847.50
2019-04-20T11:27:14.273Z,3751.88
2019-04-20T11:28:14.355Z,3600.00
2019-04-20T11:29:13.876Z,3661.88
2019-04-20T11:30:14.079Z,3510.00
2019-04-20T11:31:14.429Z,3076.88
2019-04-20T11:32:14.249Z,3217.50
2019-04-20T11:33:14.026Z,3150.00
2019-04-20T11:34:15.028Z,3138.75
2019-04-20T11:35:22.858Z,2953.13
2019-04-20T11:36:14.865Z,2784.38
2019-04-20T11:37:13.476Z,2829.38
2019-04-20T11:38:15.181Z,2992.50
2019-04-20T11:39:14.728Z,2981.25
2019-04-20T11:40:13.430Z,3110.63
2019-04-20T11:41:18.913Z,2868.75
2019-04-20T11:42:13.977Z,3155.63
2019-04-20T11:43:13.641Z,3324.38
2019-04-20T11:44:13.769Z,2812.50
2019-04-20T11:45:14.939Z,2975.63
2019-04-20T11:46:56.667Z,3110.63
2019-04-20T11:47:55.846Z,3161.25
2019-04-20T11:48:55.704Z,3251.25
2019-04-20T11:49:55.689Z,3166.88
2019-04-20T11:50:55.858Z,3161.25
2019-04-20T11:51:55.661Z,3138.75
2019-04-20T11:52:55.642Z,3121.88
2019-04-20T11:53:56.422Z,3223.13
2019-04-20T11:54:55.610Z,3121.88
2019-04-20T11:55:56.333Z,3166.88
2019-04-20T11:56:55.609Z,3217.50
2019-04-20T11:57:56.202Z,3352.50
2019-04-20T11:58:56.757Z,3526.88
2019-04-20T11:59:55.536Z,3706.88
2019-04-20T12:01:03.185Z,3695.63
2019-04-20T12:02:01.130Z,3706.88
2019-04-20T12:02:58.550Z,3667.50
2019-04-20T12:04:03.781Z,3701.25
2019-04-20T12:05:08.843Z,3515.63
2019-04-20T12:05:59.144Z,3560.63
2019-04-20T12:06:55.424Z,3695.63
2019-04-20T12:07:55.537Z,3605.63
2019-04-20T12:08:56.898Z,3628.13
2019-04-20T12:09:58.509Z,3791.25
2019-04-20T12:10:59.845Z,3718.13
2019-04-20T12:12:08.248Z,3498.75
2019-04-20T12:12:55.784Z,3504.38
2019-04-20T12:13:56.498Z,3386.25
2019-04-20T12:14:56.691Z,3195.00
2019-04-20T12:15:56.023Z,3290.63
2019-04-20T12:16:55.484Z,3352.50
2019-04-20T12:17:55.666Z,3459.38
2019-04-20T12:18:56.626Z,3346.88
2019-04-20T12:19:55.563Z,3341.25
2019-04-20T12:20:56.620Z,3279.38
2019-04-20T12:21:55.822Z,3048.75
2019-04-20T12:22:55.183Z,3009.38
2019-04-20T12:23:56.187Z,3099.38
2019-04-20T12:24:56.222Z,3195.00
2019-04-20T12:25:56.316Z,3228.75
2019-04-20T12:26:56.478Z,3183.75
2019-04-20T12:27:57.397Z,3009.38
2019-04-20T12:28:55.794Z,3200.63
2019-04-20T12:29:55.080Z,3211.88
2019-04-20T12:31:02.745Z,3048.75
2019-04-20T12:31:59.108Z,2975.63
2019-04-20T12:32:58.522Z,2818.13
2019-04-20T12:33:55.037Z,2638.13
2019-04-20T12:34:56.080Z,2536.88
2019-04-20T12:35:56.072Z,2728.13
2019-04-20T12:36:55.365Z,3071.25
2019-04-20T12:37:55.167Z,3301.88
2019-04-20T12:38:55.152Z,3425.63
2019-04-20T12:39:55.362Z,3656.25
2019-04-20T12:40:55.707Z,3763.13
2019-04-20T12:42:00.057Z,3543.75
2019-04-20T12:42:55.079Z,3588.75
2019-04-20T12:43:56.117Z,3690.00
2019-04-20T12:44:55.640Z,3538.13
2019-04-20T12:45:55.883Z,3420.00
2019-04-20T12:46:55.908Z,3521.25
2019-04-20T12:47:55.540Z,3673.13
2019-04-20T12:48:55.705Z,3768.75
2019-04-20T12:49:55.809Z,3425.63
2019-04-20T12:50:55.427Z,3560.63
2019-04-20T12:51:59.449Z,3751.88
2019-04-20T12:52:54.952Z,3645.00
2019-04-20T12:53:54.734Z,3706.88
2019-04-20T12:54:54.721Z,3611.25
2019-04-20T12:55:54.830Z,3560.63
2019-04-20T12:56:54.691Z,3656.25
2019-04-20T12:57:54.679Z,3661.88
2019-04-20T12:58:55.796Z,3560.63
2019-04-20T12:59:54.651Z,3408.75
2019-04-20T13:00:54.638Z,3380.63
2019-04-20T13:01:55.418Z,3476.25
2019-04-20T13:02:55.674Z,3577.50
2019-04-20T13:03:55.306Z,3487.50
2019-04-20T13:04:55.343Z,3341.25
2019-04-20T13:05:54.564Z,3386.25
2019-04-20T13:06:55.360Z,3504.38
2019-04-20T13:07:58.974Z,3420.00
2019-04-20T13:08:58.433Z,3155.63
2019-04-20T13:09:54.853Z,1901.25
2019-04-20T13:10:54.878Z,1350.00
2019-04-20T13:11:59.068Z,2610.00
2019-04-20T13:12:54.505Z,3195.00
2019-04-20T13:13:54.578Z,3178.13
2019-04-20T13:14:54.442Z,3391.88
2019-04-20T13:15:54.460Z,3420.00
2019-04-20T13:16:55.180Z,3307.50
2019-04-20T13:17:54.413Z,3268.13
2019-04-20T13:18:55.248Z,3172.50
2019-04-20T13:19:55.310Z,3138.75
2019-04-20T13:20:58.004Z,3099.38
2019-04-20T13:21:54.799Z,3256.88
2019-04-20T13:22:55.031Z,3369.38
2019-04-20T13:23:56.233Z,3476.25
2019-04-20T13:24:54.965Z,3352.50
2019-04-20T13:25:57.183Z,3285.00
2019-04-20T13:26:55.202Z,3110.63
2019-04-20T13:27:54.770Z,2998.13
2019-04-20T13:28:55.110Z,2868.75
2019-04-20T13:29:55.835Z,2806.88
2019-04-20T13:30:55.380Z,2812.50
2019-04-20T13:32:38.069Z,2649.38
2019-04-20T13:33:36.906Z,2598.75
2019-04-20T13:34:36.543Z,2497.50
2019-04-20T13:35:36.728Z,2340.00
2019-04-20T13:36:37.980Z,2306.25
2019-04-20T13:37:38.773Z,2244.38
2019-04-20T13:38:36.682Z,2131.88
2019-04-20T13:41:01.991Z,2137.50
2019-04-20T13:42:11.429Z,2216.25
2019-04-20T13:43:01.698Z,2227.50
2019-04-20T13:44:03.118Z,2266.88
2019-04-20T13:45:01.201Z,2930.63
2019-04-20T13:46:01.186Z,3903.75
2019-04-20T13:47:01.166Z,4218.75
2019-04-20T13:48:01.214Z,4078.13
2019-04-20T13:49:01.632Z,4426.88
2019-04-20T13:50:01.172Z,4275.00
2019-04-20T13:51:02.368Z,4168.13
2019-04-20T13:52:02.295Z,4010.63
2019-04-20T13:53:01.233Z,3819.38
2019-04-20T13:55:27.309Z,3352.50
2019-04-20T13:56:26.039Z,3352.50
2019-04-20T13:57:26.175Z,3206.25
2019-04-20T13:58:26.007Z,3493.13
2019-04-20T13:59:25.919Z,3493.13
2019-04-20T14:00:26.193Z,3510.00
2019-04-20T14:01:26.452Z,3684.38
2019-04-20T14:02:26.700Z,3555.00
2019-04-20T14:03:25.825Z,3515.63
2019-04-20T14:04:26.600Z,3465.00
2019-04-20T14:05:26.539Z,3369.38
2019-04-20T14:06:26.714Z,3583.13
2019-04-20T14:07:26.953Z,3622.50
2019-04-20T14:08:25.643Z,3588.75
2019-04-20T14:09:25.686Z,3504.38
2019-04-20T14:10:25.610Z,3549.38
2019-04-20T14:11:25.595Z,3487.50
2019-04-20T14:12:32.434Z,3369.38
2019-04-20T14:13:35.259Z,3330.00
2019-04-20T14:14:25.547Z,3363.75
2019-04-20T14:15:26.937Z,3256.88
2019-04-20T14:16:29.407Z,3110.63
2019-04-20T14:17:26.460Z,3048.75
2019-04-20T14:18:25.482Z,3127.50
2019-04-20T14:19:27.310Z,3183.75
2019-04-20T14:20:27.046Z,3161.25
2019-04-20T14:21:26.057Z,3071.25